createdAt,value
2023-06-23T00:00:10.798Z,2540.00
2023-06-23T00:01:10.843Z,2518.00
2023-06-23T00:02:10.789Z,2594.00
2023-06-23T00:03:10.860Z,2606.00
2023-06-23T00:04:10.893Z,2544.00
2023-06-23T00:05:10.771Z,2584.00
2023-06-23T00:06:10.786Z,2579.00
2023-06-23T00:07:10.773Z,2585.00
2023-06-23T00:08:10.768Z,2595.00
2023-06-23T00:09:10.784Z,2584.00
2023-06-23T00:10:10.781Z,2585.00
2023-06-23T00:11:10.829Z,2585.00
2023-06-23T00:12:10.760Z,2592.00
2023-06-23T00:13:10.784Z,2564.00
2023-06-23T00:14:10.753Z,2598.00
2023-06-23T00:15:10.747Z,2617.00
2023-06-23T00:16:10.726Z,2613.00
2023-06-23T00:17:10.763Z,2607.00
2023-06-23T00:18:10.758Z,2609.00
2023-06-23T00:19:10.745Z,2605.00
2023-06-23T00:20:10.754Z,2597.00
2023-06-23T00:21:10.711Z,2601.00
2023-06-23T00:22:10.725Z,2566.00
2023-06-23T00:23:10.733Z,2606.00
2023-06-23T00:24:10.745Z,2566.00
2023-06-23T00:25:10.758Z,2585.00
2023-06-23T00:26:10.719Z,2580.00
2023-06-23T00:27:10.717Z,2606.00
2023-06-23T00:28:11.537Z,2618.00
2023-06-23T00:29:10.698Z,2614.00
2023-06-23T00:30:10.702Z,2646.00
2023-06-23T00:31:10.739Z,2668.00
2023-06-23T00:32:10.678Z,2679.00
2023-06-23T00:33:10.714Z,2643.00
2023-06-23T00:34:10.752Z,2645.00
2023-06-23T00:35:10.667Z,2611.00
2023-06-23T00:36:10.680Z,2584.00
2023-06-23T00:37:10.673Z,2622.00
2023-06-23T00:38:10.724Z,2601.00
2023-06-23T00:39:10.704Z,2551.00
2023-06-23T00:40:10.659Z,2603.00
2023-06-23T00:41:10.676Z,2570.00
2023-06-23T00:42:10.645Z,2579.00
2023-06-23T00:43:10.678Z,2587.00
2023-06-23T00:44:10.667Z,2574.00
2023-06-23T00:45:10.658Z,2603.00
2023-06-23T00:46:10.661Z,2589.00
2023-06-23T00:47:10.658Z,2601.00
2023-06-23T00:48:10.680Z,2604.00
2023-06-23T00:49:10.668Z,2632.00
2023-06-23T00:50:10.634Z,2598.00
2023-06-23T00:51:10.640Z,2599.00
2023-06-23T00:52:10.630Z,2582.00
2023-06-23T00:53:10.654Z,2574.00
2023-06-23T00:54:10.632Z,2586.00
2023-06-23T00:55:10.615Z,2600.00
2023-06-23T00:56:10.624Z,2575.00
2023-06-23T00:57:10.614Z,2604.00
2023-06-23T00:58:10.685Z,2576.00
2023-06-23T00:59:10.705Z,2529.00
2023-06-23T01:00:10.760Z,2554.00
2023-06-23T01:01:10.839Z,2567.00
2023-06-23T01:02:10.887Z,2553.00
2023-06-23T01:03:11.157Z,2557.00
2023-06-23T01:04:11.002Z,2585.00
2023-06-23T01:05:10.925Z,2582.00
2023-06-23T01:06:10.928Z,2569.00
2023-06-23T01:07:10.935Z,2578.00
2023-06-23T01:08:10.927Z,2558.00
2023-06-23T01:09:10.935Z,2606.00
2023-06-23T01:10:10.910Z,2595.00
2023-06-23T01:11:10.889Z,2571.00
2023-06-23T01:12:10.899Z,2630.00
2023-06-23T01:13:10.913Z,2630.00
2023-06-23T01:14:10.930Z,2605.00
2023-06-23T01:15:10.915Z,2587.00
2023-06-23T01:16:10.966Z,2611.00
2023-06-23T01:17:10.919Z,2629.00
2023-06-23T01:18:10.917Z,2632.00
2023-06-23T01:19:10.914Z,2616.00
2023-06-23T01:20:10.937Z,2559.00
2023-06-23T01:21:10.921Z,2610.00
2023-06-23T01:22:10.935Z,2605.00
2023-06-23T01:23:10.918Z,2558.00
2023-06-23T01:24:10.951Z,2583.00
2023-06-23T01:25:10.936Z,2601.00
2023-06-23T01:26:11.042Z,2639.00
2023-06-23T01:27:10.934Z,2640.00
2023-06-23T01:28:10.955Z,2611.00
2023-06-23T01:29:10.940Z,2610.00
2023-06-23T01:30:10.971Z,2610.00
2023-06-23T01:31:10.954Z,2577.00
2023-06-23T01:32:11.003Z,2547.00
2023-06-23T01:33:10.946Z,2533.00
2023-06-23T01:34:10.958Z,2540.00
2023-06-23T01:35:10.945Z,2539.00
2023-06-23T01:36:10.973Z,2527.00
2023-06-23T01:37:10.965Z,2542.00
2023-06-23T01:38:10.982Z,2571.00
2023-06-23T01:39:10.987Z,2554.00
2023-06-23T01:40:10.975Z,2563.00
2023-06-23T01:41:10.989Z,2559.00
2023-06-23T01:42:11.009Z,2566.00
2023-06-23T01:43:10.989Z,2584.00
2023-06-23T01:44:11.005Z,2582.00
2023-06-23T01:45:10.998Z,2573.00
2023-06-23T01:46:11.046Z,2556.00
2023-06-23T01:47:11.032Z,2514.00
2023-06-23T01:48:11.014Z,2577.00
2023-06-23T01:49:11.016Z,2592.00
2023-06-23T01:50:11.048Z,2562.00
2023-06-23T01:51:11.071Z,2593.00
2023-06-23T01:52:11.032Z,2452.00
2023-06-23T01:53:11.094Z,2301.00
2023-06-23T01:54:11.099Z,2211.00
2023-06-23T01:55:11.075Z,2216.00
2023-06-23T01:56:11.090Z,2219.00
2023-06-23T01:57:11.092Z,2173.00
2023-06-23T01:58:11.089Z,2193.00
2023-06-23T01:59:11.094Z,2187.00
2023-06-23T02:00:11.096Z,2205.00
2023-06-23T02:01:11.148Z,2134.00
2023-06-23T02:02:11.141Z,2095.00
2023-06-23T02:03:11.278Z,2095.00
2023-06-23T02:04:11.303Z,2092.00
2023-06-23T02:05:11.114Z,2068.00
2023-06-23T02:06:11.139Z,2073.00
2023-06-23T02:07:11.122Z,2031.00
2023-06-23T02:08:11.135Z,2037.00
2023-06-23T02:09:11.156Z,2019.00
2023-06-23T02:10:11.128Z,1990.00
2023-06-23T02:11:11.160Z,1965.00
2023-06-23T02:12:11.161Z,1921.00
2023-06-23T02:13:11.157Z,1847.00
2023-06-23T02:14:11.183Z,1838.00
2023-06-23T02:15:11.175Z,1787.00
2023-06-23T02:16:11.156Z,1749.00
2023-06-23T02:17:12.174Z,1729.00
2023-06-23T02:18:11.191Z,1630.00
2023-06-23T02:19:11.168Z,1575.00
2023-06-23T02:20:11.230Z,1536.00
2023-06-23T02:21:11.205Z,1541.00
2023-06-23T02:22:11.173Z,1531.00
2023-06-23T02:23:11.187Z,1553.00
2023-06-23T02:24:11.205Z,1550.00
2023-06-23T02:25:11.205Z,1535.00
2023-06-23T02:26:11.211Z,1481.00
2023-06-23T02:27:11.219Z,1496.00
2023-06-23T02:28:11.222Z,1484.00
2023-06-23T02:29:11.250Z,1466.00
2023-06-23T02:30:11.234Z,1452.00
2023-06-23T02:31:11.282Z,1436.00
2023-06-23T02:32:11.224Z,1389.00
2023-06-23T02:33:11.222Z,1417.00
2023-06-23T02:34:11.251Z,1439.00
2023-06-23T02:35:11.231Z,1474.00
2023-06-23T02:36:11.235Z,1521.00
2023-06-23T02:37:11.232Z,1513.00
2023-06-23T02:38:11.226Z,1489.00
2023-06-23T02:39:11.230Z,1497.00
2023-06-23T02:40:11.251Z,1431.00
2023-06-23T02:41:11.240Z,1395.00
2023-06-23T02:42:11.252Z,1325.00
2023-06-23T02:43:11.246Z,1311.00
2023-06-23T02:44:11.238Z,1303.00
2023-06-23T02:45:11.248Z,1224.00
2023-06-23T02:46:11.364Z,1146.00
2023-06-23T02:47:11.257Z,1050.00
2023-06-23T02:48:11.326Z,942.00
2023-06-23T02:49:11.257Z,883.00
2023-06-23T02:50:11.264Z,835.00
2023-06-23T02:51:11.241Z,875.00
2023-06-23T02:52:11.261Z,863.00
2023-06-23T02:53:11.242Z,884.00
2023-06-23T02:54:11.250Z,1136.00
2023-06-23T02:55:11.232Z,1350.00
2023-06-23T02:56:11.253Z,1752.00
2023-06-23T02:57:11.241Z,1934.00
2023-06-23T02:58:11.235Z,2056.00
2023-06-23T02:59:11.298Z,2130.00
2023-06-23T03:00:11.303Z,2121.00
2023-06-23T03:01:11.357Z,1942.00
2023-06-23T03:02:11.380Z,1726.00
2023-06-23T03:03:11.382Z,1749.00
2023-06-23T03:04:11.310Z,1739.00
2023-06-23T03:05:11.303Z,1767.00
2023-06-23T03:06:11.301Z,1908.00
2023-06-23T03:07:11.358Z,1944.00
2023-06-23T03:08:11.395Z,1994.00
2023-06-23T03:09:11.461Z,2049.00
2023-06-23T03:10:11.536Z,2017.00
2023-06-23T03:11:11.547Z,2023.00
2023-06-23T03:12:11.578Z,2087.00
2023-06-23T03:13:11.596Z,2055.00
2023-06-23T03:14:11.571Z,2017.00
2023-06-23T03:15:11.559Z,2083.00
2023-06-23T03:16:11.583Z,2072.00
2023-06-23T03:17:11.629Z,2069.00
2023-06-23T03:18:11.675Z,2105.00
2023-06-23T03:19:11.668Z,2078.00
2023-06-23T03:20:11.680Z,2088.00
2023-06-23T03:21:11.690Z,2037.00
2023-06-23T03:22:11.692Z,1973.00
2023-06-23T03:23:11.723Z,1931.00
2023-06-23T03:24:11.701Z,1895.00
2023-06-23T03:25:11.705Z,1799.00
2023-06-23T03:26:11.749Z,1701.00
2023-06-23T03:27:11.709Z,1540.00
2023-06-23T03:28:11.702Z,1500.00
2023-06-23T03:29:11.706Z,1486.00
2023-06-23T03:30:11.709Z,1462.00
2023-06-23T03:31:11.705Z,1420.00
2023-06-23T03:32:11.692Z,1360.00
2023-06-23T03:33:11.701Z,1373.00
2023-06-23T03:34:11.678Z,1401.00
2023-06-23T03:35:11.714Z,1443.00
2023-06-23T03:36:11.689Z,1396.00
2023-06-23T03:37:11.689Z,1309.00
2023-06-23T03:38:11.708Z,1235.00
2023-06-23T03:40:11.694Z,1192.00
2023-06-23T03:41:11.710Z,1200.00
2023-06-23T03:42:11.704Z,1214.00
2023-06-23T03:43:11.676Z,1220.00
2023-06-23T03:44:11.696Z,1214.00
2023-06-23T03:45:11.694Z,1220.00
2023-06-23T03:46:11.720Z,1221.00
2023-06-23T03:47:11.691Z,1194.00
2023-06-23T03:48:11.683Z,1188.00
2023-06-23T03:49:11.705Z,1201.00
2023-06-23T03:50:11.665Z,1202.00
2023-06-23T03:51:11.708Z,1252.00
2023-06-23T03:52:11.701Z,1254.00
2023-06-23T03:53:11.694Z,1229.00
2023-06-23T03:54:11.729Z,1224.00
2023-06-23T03:55:11.695Z,1230.00
2023-06-23T03:56:11.701Z,1225.00
2023-06-23T03:57:11.683Z,1225.00
2023-06-23T03:58:11.685Z,1210.00
2023-06-23T03:59:11.676Z,1201.00
2023-06-23T04:00:11.680Z,1180.00
2023-06-23T04:01:11.676Z,1162.00
2023-06-23T04:02:11.788Z,1119.00
2023-06-23T04:03:11.757Z,1109.00
2023-06-23T04:04:11.781Z,1159.00
2023-06-23T04:05:11.708Z,1199.00
2023-06-23T04:06:11.679Z,1210.00
2023-06-23T04:07:11.702Z,1193.00
2023-06-23T04:08:11.668Z,1172.00
2023-06-23T04:09:11.693Z,1144.00
2023-06-23T04:10:11.695Z,1112.00
2023-06-23T04:11:11.669Z,1086.00
2023-06-23T04:12:11.746Z,1069.00
2023-06-23T04:13:11.697Z,1091.00
2023-06-23T04:14:11.703Z,1142.00
2023-06-23T04:15:11.693Z,1163.00
2023-06-23T04:16:11.738Z,1174.00
2023-06-23T04:17:11.698Z,1136.00
2023-06-23T04:18:11.784Z,1100.00
2023-06-23T04:19:12.814Z,1112.00
2023-06-23T04:20:11.758Z,1117.00
2023-06-23T04:21:11.758Z,1103.00
2023-06-23T04:22:11.754Z,1107.00
2023-06-23T04:23:11.753Z,1111.00
2023-06-23T04:24:11.874Z,1115.00
2023-06-23T04:25:11.786Z,1169.00
2023-06-23T04:26:11.789Z,1218.00
2023-06-23T04:27:11.809Z,1222.00
2023-06-23T04:28:11.783Z,1198.00
2023-06-23T04:29:11.791Z,1189.00
2023-06-23T04:30:11.779Z,1223.00
2023-06-23T04:31:11.891Z,1261.00
2023-06-23T04:32:11.796Z,1266.00
2023-06-23T04:33:11.811Z,1279.00
2023-06-23T04:34:11.820Z,1267.00
2023-06-23T04:35:11.827Z,1230.00
2023-06-23T04:36:11.816Z,1274.00
2023-06-23T04:37:11.833Z,1263.00
2023-06-23T04:38:11.820Z,1260.00
2023-06-23T04:39:11.864Z,1195.00
2023-06-23T04:40:11.849Z,1143.00
2023-06-23T04:41:11.857Z,1135.00
2023-06-23T04:42:11.859Z,1189.00
2023-06-23T04:43:11.952Z,1283.00
2023-06-23T04:44:11.881Z,1266.00
2023-06-23T04:45:11.871Z,1263.00
2023-06-23T04:46:11.913Z,1261.00
2023-06-23T04:47:11.874Z,1227.00
2023-06-23T04:48:11.899Z,1270.00
2023-06-23T04:49:12.000Z,1272.00
2023-06-23T04:50:11.912Z,1351.00
2023-06-23T04:51:11.905Z,1365.00
2023-06-23T04:52:11.933Z,1347.00
2023-06-23T04:53:11.932Z,1325.00
2023-06-23T04:54:11.978Z,1256.00
2023-06-23T04:55:11.990Z,1197.00
2023-06-23T04:56:11.941Z,1242.00
2023-06-23T04:57:11.973Z,1262.00
2023-06-23T04:58:11.998Z,1327.00
2023-06-23T04:59:11.988Z,1351.00
2023-06-23T05:00:11.992Z,1367.00
2023-06-23T05:01:12.059Z,1364.00
2023-06-23T05:02:12.053Z,1322.00
2023-06-23T05:03:12.076Z,1330.00
2023-06-23T05:04:12.035Z,1287.00
2023-06-23T05:05:12.024Z,1284.00
2023-06-23T05:06:12.063Z,1216.00
2023-06-23T05:07:12.065Z,850.00
2023-06-23T05:08:12.103Z,623.00
2023-06-23T05:09:12.125Z,568.00
2023-06-23T05:10:12.170Z,546.00
2023-06-23T05:11:12.202Z,523.00
2023-06-23T05:12:12.198Z,500.00
2023-06-23T05:13:12.219Z,500.00
2023-06-23T05:14:12.222Z,501.00
2023-06-23T05:15:12.256Z,509.00
2023-06-23T05:16:12.287Z,508.00
2023-06-23T05:17:12.314Z,510.00
2023-06-23T05:18:12.384Z,513.00
2023-06-23T05:19:12.399Z,527.00
2023-06-23T05:20:12.408Z,536.00
2023-06-23T05:21:12.429Z,543.00
2023-06-23T05:22:12.482Z,559.00
2023-06-23T05:23:12.510Z,568.00
2023-06-23T05:24:12.560Z,591.00
2023-06-23T05:25:12.618Z,621.00
2023-06-23T05:26:12.670Z,673.00
2023-06-23T05:27:12.777Z,734.00
2023-06-23T05:28:12.807Z,849.00
2023-06-23T05:29:12.834Z,897.00
2023-06-23T05:30:12.878Z,899.00
2023-06-23T05:31:12.964Z,797.00
2023-06-23T05:32:12.934Z,801.00
2023-06-23T05:33:12.975Z,854.00
2023-06-23T05:34:13.009Z,895.00
2023-06-23T05:35:13.078Z,1027.00
2023-06-23T05:36:13.136Z,1093.00
2023-06-23T05:37:13.152Z,1130.00
2023-06-23T05:38:13.232Z,1208.00
2023-06-23T05:39:13.290Z,1284.00
2023-06-23T05:40:13.375Z,1283.00
2023-06-23T05:41:13.424Z,1390.00
2023-06-23T05:42:13.434Z,1474.00
2023-06-23T05:43:13.463Z,1559.00
2023-06-23T05:44:13.789Z,1583.00
2023-06-23T05:45:13.514Z,1532.00
2023-06-23T05:46:13.622Z,1487.00
2023-06-23T05:47:13.674Z,1383.00
2023-06-23T05:48:13.755Z,1366.00
2023-06-23T05:49:13.766Z,1356.00
2023-06-23T05:50:13.733Z,1354.00
2023-06-23T05:51:13.793Z,1358.00
2023-06-23T05:52:13.807Z,1346.00
2023-06-23T05:53:13.842Z,1386.00
2023-06-23T05:54:13.879Z,1420.00
2023-06-23T05:55:13.959Z,1472.00
2023-06-23T05:56:13.981Z,1550.00
2023-06-23T05:57:14.039Z,1591.00
2023-06-23T05:58:14.120Z,1649.00
2023-06-23T05:59:14.203Z,1708.00
2023-06-23T06:00:14.253Z,1743.00
2023-06-23T06:01:14.298Z,1741.00
2023-06-23T06:02:14.285Z,1750.00
2023-06-23T06:03:14.382Z,1760.00
2023-06-23T06:04:14.336Z,1758.00
2023-06-23T06:05:14.367Z,1719.00
2023-06-23T06:06:14.365Z,1712.00
2023-06-23T06:07:14.371Z,1742.00
2023-06-23T06:08:14.439Z,1750.00
2023-06-23T06:09:14.482Z,1772.00
2023-06-23T06:10:14.516Z,1775.00
2023-06-23T06:11:14.483Z,1766.00
2023-06-23T06:12:14.501Z,1691.00
2023-06-23T06:13:14.514Z,1629.00
2023-06-23T06:14:14.523Z,1613.00
2023-06-23T06:15:14.549Z,1608.00
2023-06-23T06:16:14.571Z,1592.00
2023-06-23T06:17:14.610Z,1584.00
2023-06-23T06:18:15.658Z,1574.00
2023-06-23T06:19:14.633Z,1577.00
2023-06-23T06:20:14.666Z,1541.00
2023-06-23T06:21:14.675Z,1549.00
2023-06-23T06:22:15.292Z,1514.00
2023-06-23T06:23:24.650Z,1515.00
2023-06-23T06:24:15.738Z,1517.00
2023-06-23T06:25:14.801Z,1524.00
2023-06-23T06:26:14.718Z,1541.00
2023-06-23T06:27:14.715Z,1531.00
2023-06-23T06:28:14.690Z,1553.00
2023-06-23T06:29:14.700Z,1506.00
2023-06-23T06:30:14.693Z,1490.00
2023-06-23T06:31:14.821Z,1434.00
2023-06-23T06:32:14.679Z,1385.00
2023-06-23T06:33:14.688Z,1311.00
2023-06-23T06:34:14.798Z,1323.00
2023-06-23T06:35:14.686Z,1282.00
2023-06-23T06:36:14.690Z,1288.00
2023-06-23T06:37:14.731Z,1338.00
2023-06-23T06:38:14.736Z,1378.00
2023-06-23T06:39:14.757Z,1402.00
2023-06-23T06:40:14.764Z,1429.00
2023-06-23T06:41:14.804Z,1486.00
2023-06-23T06:42:14.867Z,1534.00
2023-06-23T06:43:14.905Z,1589.00
2023-06-23T06:44:14.962Z,1663.00
2023-06-23T06:45:14.979Z,1685.00
2023-06-23T06:46:15.010Z,1738.00
2023-06-23T06:47:15.007Z,1792.00
2023-06-23T06:48:15.039Z,1864.00
2023-06-23T06:49:15.045Z,1925.00
2023-06-23T06:50:15.060Z,1926.00
2023-06-23T06:51:15.060Z,1889.00
2023-06-23T06:52:15.115Z,1824.00
2023-06-23T06:53:15.109Z,1775.00
2023-06-23T06:54:15.570Z,1653.00
2023-06-23T06:55:15.108Z,1608.00
2023-06-23T06:56:15.082Z,1641.00
2023-06-23T06:57:15.116Z,1662.00
2023-06-23T06:58:15.103Z,1671.00
2023-06-23T06:59:15.136Z,1640.00
2023-06-23T07:00:15.109Z,1577.00
2023-06-23T07:01:15.279Z,1537.00
2023-06-23T07:02:15.269Z,1540.00
2023-06-23T07:03:15.303Z,1577.00
2023-06-23T07:04:15.213Z,1543.00
2023-06-23T07:05:15.264Z,1556.00
2023-06-23T07:06:15.609Z,1532.00
2023-06-23T07:07:15.323Z,1527.00
2023-06-23T07:08:15.457Z,1525.00
2023-06-23T07:09:15.802Z,1551.00
2023-06-23T07:10:15.537Z,1587.00
2023-06-23T07:11:15.570Z,1631.00
2023-06-23T07:12:15.627Z,1612.00
2023-06-23T07:13:15.690Z,1660.00
2023-06-23T07:14:15.676Z,1708.00
2023-06-23T07:15:15.732Z,1709.00
2023-06-23T07:16:15.718Z,1684.00
2023-06-23T07:17:15.754Z,1668.00
2023-06-23T07:18:15.771Z,1639.00
2023-06-23T07:19:16.283Z,1645.00
2023-06-23T07:20:15.813Z,1673.00
2023-06-23T07:21:15.870Z,1685.00
2023-06-23T07:22:15.906Z,1659.00
2023-06-23T07:23:15.981Z,1626.00
2023-06-23T07:24:16.321Z,1631.00
2023-06-23T07:25:16.097Z,1625.00
2023-06-23T07:26:16.154Z,1693.00
2023-06-23T07:27:16.155Z,1787.00
2023-06-23T07:28:16.203Z,1926.00
2023-06-23T07:29:16.217Z,2051.00
2023-06-23T07:30:16.330Z,2138.00
2023-06-23T07:31:16.431Z,2220.00
2023-06-23T07:32:16.410Z,2360.00
2023-06-23T07:33:16.431Z,2451.00
2023-06-23T07:34:16.821Z,2483.00
2023-06-23T07:35:16.535Z,2571.00
2023-06-23T07:36:16.508Z,2674.00
2023-06-23T07:37:16.549Z,2683.00
2023-06-23T07:38:16.546Z,2783.00
2023-06-23T07:39:16.570Z,2843.00
2023-06-23T07:40:16.513Z,2842.00
2023-06-23T07:41:16.522Z,2872.00
2023-06-23T07:42:16.543Z,2828.00
2023-06-23T07:43:16.588Z,2804.00
2023-06-23T07:44:16.856Z,2782.00
2023-06-23T07:45:16.668Z,2798.00
2023-06-23T07:46:16.783Z,2778.00
2023-06-23T07:47:16.863Z,2688.00
2023-06-23T07:48:16.903Z,2571.00
2023-06-23T07:49:16.954Z,2521.00
2023-06-23T07:50:16.977Z,2473.00
2023-06-23T07:51:17.045Z,2562.00
2023-06-23T07:52:17.099Z,2403.00
2023-06-23T07:53:17.191Z,2201.00
2023-06-23T07:54:17.256Z,2167.00
2023-06-23T07:55:17.325Z,2154.00
2023-06-23T07:56:17.342Z,2142.00
2023-06-23T07:57:17.410Z,2095.00
2023-06-23T07:58:17.478Z,2197.00
2023-06-23T07:59:17.495Z,2111.00
2023-06-23T08:00:17.553Z,2119.00
2023-06-23T08:01:17.609Z,2150.00
2023-06-23T08:02:17.714Z,2076.00
2023-06-23T08:03:17.842Z,2172.00
2023-06-23T08:04:18.021Z,2115.00
2023-06-23T08:05:17.848Z,2217.00
2023-06-23T08:06:17.850Z,2324.00
2023-06-23T08:07:17.874Z,2376.00
2023-06-23T08:08:17.964Z,2464.00
2023-06-23T08:09:17.990Z,2459.00
2023-06-23T08:10:17.993Z,2491.00
2023-06-23T08:11:18.041Z,2483.00
2023-06-23T08:12:18.045Z,2477.00
2023-06-23T08:13:18.097Z,2611.00
2023-06-23T08:14:18.097Z,2635.00
2023-06-23T08:15:18.131Z,2652.00
2023-06-23T08:16:18.236Z,2594.00
2023-06-23T08:17:18.210Z,2590.00
2023-06-23T08:18:18.289Z,2563.00
2023-06-23T08:19:18.344Z,2421.00
2023-06-23T08:20:18.329Z,2407.00
2023-06-23T08:21:18.439Z,2382.00
2023-06-23T08:22:18.428Z,2322.00
2023-06-23T08:23:18.524Z,2189.00
2023-06-23T08:24:18.544Z,2112.00
2023-06-23T08:25:18.623Z,1990.00
2023-06-23T08:26:18.679Z,1895.00
2023-06-23T08:27:18.701Z,1851.00
2023-06-23T08:28:18.810Z,1795.00
2023-06-23T08:29:18.815Z,1766.00
2023-06-23T08:30:18.882Z,1756.00
2023-06-23T08:31:19.041Z,1707.00
2023-06-23T08:32:19.066Z,1720.00
2023-06-23T08:33:19.035Z,1643.00
2023-06-23T08:34:19.144Z,1607.00
2023-06-23T08:35:19.260Z,1617.00
2023-06-23T08:36:19.208Z,1748.00
2023-06-23T08:37:19.279Z,1771.00
2023-06-23T08:38:19.321Z,1782.00
2023-06-23T08:39:19.436Z,1821.00
2023-06-23T08:40:19.427Z,1879.00
2023-06-23T08:41:19.490Z,1907.00
2023-06-23T08:42:19.566Z,1963.00
2023-06-23T08:43:19.603Z,2009.00
2023-06-23T08:44:19.854Z,1990.00
2023-06-23T08:45:19.736Z,2012.00
2023-06-23T08:46:19.821Z,2040.00
2023-06-23T08:47:20.017Z,2147.00
2023-06-23T08:48:19.951Z,2143.00
2023-06-23T08:49:19.956Z,2159.00
2023-06-23T08:50:20.071Z,2146.00
2023-06-23T08:51:20.057Z,2159.00
2023-06-23T08:52:20.110Z,2157.00
2023-06-23T08:53:20.179Z,2170.00
2023-06-23T08:54:20.272Z,2146.00
2023-06-23T08:55:20.283Z,2149.00
2023-06-23T08:56:20.353Z,2155.00
2023-06-23T08:57:20.396Z,2128.00
2023-06-23T08:58:20.513Z,2067.00
2023-06-23T08:59:20.511Z,2088.00
2023-06-23T09:00:20.567Z,2079.00
2023-06-23T09:01:20.651Z,2066.00
2023-06-23T09:02:20.712Z,2088.00
2023-06-23T09:03:20.768Z,2050.00
2023-06-23T09:04:20.813Z,2038.00
2023-06-23T09:05:20.831Z,2004.00
2023-06-23T09:06:20.871Z,1990.00
2023-06-23T09:07:20.924Z,1891.00
2023-06-23T09:08:21.008Z,1930.00
2023-06-23T09:09:21.015Z,1952.00
2023-06-23T09:10:21.076Z,1927.00
2023-06-23T09:11:21.212Z,1859.00
2023-06-23T09:12:21.171Z,1934.00
2023-06-23T09:13:21.270Z,1865.00
2023-06-23T09:14:21.282Z,1856.00
2023-06-23T09:15:21.407Z,1896.00
2023-06-23T09:16:21.396Z,1899.00
2023-06-23T09:17:21.462Z,1865.00
2023-06-23T09:18:21.498Z,1792.00
2023-06-23T09:19:21.537Z,1776.00
2023-06-23T09:20:21.599Z,1830.00
2023-06-23T09:21:21.730Z,1822.00
2023-06-23T09:22:21.740Z,1697.00
2023-06-23T09:23:21.766Z,1754.00
2023-06-23T09:24:21.848Z,1741.00
2023-06-23T09:25:21.878Z,1712.00
2023-06-23T09:26:21.936Z,1651.00
2023-06-23T09:27:21.970Z,1700.00
2023-06-23T09:28:22.053Z,1629.00
2023-06-23T09:29:22.113Z,1646.00
2023-06-23T09:30:22.365Z,1321.00
2023-06-23T09:31:22.277Z,1332.00
2023-06-23T09:32:22.250Z,1377.00
2023-06-23T09:33:22.310Z,1437.00
2023-06-23T09:34:22.909Z,1446.00
2023-06-23T09:35:22.422Z,1312.00
2023-06-23T09:36:22.504Z,1359.00
2023-06-23T09:37:22.490Z,1269.00
2023-06-23T09:38:22.607Z,1308.00
2023-06-23T09:39:22.650Z,1227.00
2023-06-23T09:40:22.742Z,1309.00
2023-06-23T09:41:22.757Z,1164.00
2023-06-23T09:42:22.769Z,1276.00
2023-06-23T09:43:22.789Z,1137.00
2023-06-23T09:44:22.895Z,911.00
2023-06-23T09:45:22.904Z,836.00
2023-06-23T09:46:22.956Z,846.00
2023-06-23T09:47:23.047Z,883.00
2023-06-23T09:48:23.055Z,764.00
2023-06-23T09:49:23.127Z,805.00
2023-06-23T09:50:23.199Z,947.00
2023-06-23T09:51:23.224Z,974.00
2023-06-23T09:52:23.292Z,750.00
2023-06-23T09:53:23.391Z,881.00
2023-06-23T09:54:23.420Z,653.00
2023-06-23T09:55:23.486Z,665.00
2023-06-23T09:56:23.515Z,874.00
2023-06-23T09:57:23.554Z,978.00
2023-06-23T09:58:23.645Z,978.00
2023-06-23T09:59:23.722Z,971.00
2023-06-23T10:00:23.768Z,807.00
2023-06-23T10:01:23.833Z,682.00
2023-06-23T10:02:24.016Z,625.00
2023-06-23T10:03:24.003Z,631.00
2023-06-23T10:04:24.079Z,672.00
2023-06-23T10:05:24.031Z,574.00
2023-06-23T10:06:24.113Z,689.00
2023-06-23T10:07:24.155Z,798.00
2023-06-23T10:08:24.193Z,702.00
2023-06-23T10:09:24.252Z,583.00
2023-06-23T10:10:24.326Z,573.00
2023-06-23T10:11:24.346Z,555.00
2023-06-23T10:12:24.350Z,536.00
2023-06-23T10:13:24.367Z,499.00
2023-06-23T10:14:24.411Z,545.00
2023-06-23T10:15:24.416Z,625.00
2023-06-23T10:16:24.486Z,648.00
2023-06-23T10:17:24.597Z,612.00
2023-06-23T10:18:24.575Z,543.00
2023-06-23T10:19:24.610Z,548.00
2023-06-23T10:20:24.752Z,559.00
2023-06-23T10:21:24.748Z,589.00
2023-06-23T10:22:24.838Z,622.00
2023-06-23T10:23:24.903Z,657.00
2023-06-23T10:24:24.945Z,660.00
2023-06-23T10:25:25.376Z,758.00
2023-06-23T10:26:25.110Z,741.00
2023-06-23T10:27:25.102Z,725.00
2023-06-23T10:28:25.144Z,670.00
2023-06-23T10:29:25.199Z,665.00
2023-06-23T10:30:25.250Z,657.00
2023-06-23T10:31:27.199Z,638.00
2023-06-23T10:32:25.421Z,632.00
2023-06-23T10:33:27.394Z,634.00
2023-06-23T10:34:25.273Z,635.00
2023-06-23T10:35:25.274Z,630.00
2023-06-23T10:36:25.292Z,622.00
2023-06-23T10:37:35.642Z,639.00
2023-06-23T10:38:26.657Z,636.00
2023-06-23T10:39:25.238Z,637.00
2023-06-23T10:40:25.247Z,637.00
2023-06-23T10:41:25.253Z,644.00
2023-06-23T10:42:25.381Z,625.00
2023-06-23T10:43:25.248Z,660.00
2023-06-23T10:44:25.399Z,726.00
2023-06-23T10:45:25.236Z,970.00
2023-06-23T10:46:25.195Z,1110.00
2023-06-23T10:47:25.228Z,1234.00
2023-06-23T10:48:25.187Z,1258.00
2023-06-23T10:49:25.589Z,1268.00
2023-06-23T10:50:25.419Z,1397.00
2023-06-23T10:51:25.282Z,1492.00
2023-06-23T10:52:25.322Z,1567.00
2023-06-23T10:53:25.310Z,1643.00
2023-06-23T10:54:25.326Z,1696.00
2023-06-23T10:55:25.381Z,1732.00
2023-06-23T10:56:25.401Z,1752.00
2023-06-23T10:57:25.380Z,1783.00
2023-06-23T10:58:25.337Z,1826.00
2023-06-23T10:59:25.391Z,1864.00
2023-06-23T11:00:25.468Z,1906.00
2023-06-23T11:01:25.451Z,1908.00
2023-06-23T11:02:25.585Z,1943.00
2023-06-23T11:03:25.497Z,2010.00
2023-06-23T11:04:25.509Z,1949.00
2023-06-23T11:05:26.435Z,1923.00
2023-06-23T11:06:25.453Z,1935.00
2023-06-23T11:07:25.466Z,1988.00
2023-06-23T11:08:25.472Z,1896.00
2023-06-23T11:09:25.452Z,1884.00
2023-06-23T11:10:25.470Z,1869.00
2023-06-23T11:11:25.513Z,1714.00
2023-06-23T11:12:25.468Z,1629.00
2023-06-23T11:13:25.513Z,1751.00
2023-06-23T11:14:25.443Z,1662.00
2023-06-23T11:15:25.934Z,1272.00
2023-06-23T11:16:25.471Z,1056.00
2023-06-23T11:17:25.501Z,886.00
2023-06-23T11:18:25.510Z,888.00
2023-06-23T11:19:25.457Z,876.00
2023-06-23T11:20:25.490Z,983.00
2023-06-23T11:21:25.487Z,989.00
2023-06-23T11:22:25.477Z,996.00
2023-06-23T11:23:25.510Z,924.00
2023-06-23T11:24:25.508Z,792.00
2023-06-23T11:25:25.566Z,871.00
2023-06-23T11:26:25.531Z,792.00
2023-06-23T11:27:25.505Z,830.00
2023-06-23T11:28:25.518Z,922.00
2023-06-23T11:29:25.636Z,1053.00
2023-06-23T11:30:25.661Z,1078.00
2023-06-23T11:31:25.703Z,1140.00
2023-06-23T11:32:25.548Z,1205.00
2023-06-23T11:33:25.620Z,1001.00
2023-06-23T11:34:25.608Z,981.00
2023-06-23T11:35:25.598Z,1037.00
2023-06-23T11:36:25.567Z,888.00
2023-06-23T11:37:25.578Z,860.00
2023-06-23T11:38:25.618Z,963.00
2023-06-23T11:39:25.613Z,1081.00
2023-06-23T11:40:25.592Z,945.00
2023-06-23T11:41:25.612Z,975.00
2023-06-23T11:42:25.665Z,1041.00
2023-06-23T11:43:26.735Z,1102.00
2023-06-23T11:44:25.604Z,1205.00
2023-06-23T11:45:25.912Z,1288.00
2023-06-23T11:46:25.660Z,1412.00
2023-06-23T11:47:25.699Z,1454.00
2023-06-23T11:48:25.608Z,1590.00
2023-06-23T11:49:25.645Z,1942.00
2023-06-23T11:50:25.641Z,1843.00
2023-06-23T11:51:25.643Z,1792.00
2023-06-23T11:52:25.634Z,1780.00
2023-06-23T11:53:25.633Z,1925.00
2023-06-23T11:54:25.653Z,2128.00
2023-06-23T11:55:25.625Z,2156.00
2023-06-23T11:56:25.639Z,2133.00
2023-06-23T11:57:25.798Z,2145.00
2023-06-23T11:58:25.697Z,2138.00
2023-06-23T11:59:25.959Z,2118.00
2023-06-23T12:00:25.657Z,2066.00
2023-06-23T12:01:25.674Z,2029.00
2023-06-23T12:02:25.748Z,2072.00
2023-06-23T12:03:25.753Z,2054.00
2023-06-23T12:04:25.812Z,2017.00
2023-06-23T12:05:25.685Z,2071.00
2023-06-23T12:06:25.806Z,2102.00
2023-06-23T12:07:25.696Z,2158.00
2023-06-23T12:08:25.680Z,2156.00
2023-06-23T12:09:25.686Z,2232.00
2023-06-23T12:10:25.948Z,2253.00